Time;durP1;ratioP1;P1;durP2;ratioP2;P2;SDS_P1;SDS_P2;PMS_P1;PMS_P2;Temp;Humidity;BMP_temperature;BMP_pressure;BME280_temperature;BME280_humidity;BME280_pressure;Samples;Min_cycle;Max_cycle;Signal;HPM_P1;HPM_P2
2022/11/01 00:01:19;;;;;;;19.17;11.23;;;;;;;;;;6311931;28;20075;-67
2022/11/01 00:04:22;;;;;;;17.83;11.40;;;;;;;;;;6310974;28;20381;-68
2022/11/01 00:07:23;;;;;;;19.38;10.48;;;;;;;;;;6311047;28;20044;-67
2022/11/01 00:10:25;;;;;;;19.55;11.13;;;;;;;;;;6308072;28;20397;-68
2022/11/01 00:13:27;;;;;;;18.75;11.45;;;;;;;;;;6309932;28;20109;-68
2022/11/01 00:16:28;;;;;;;18.35;10.50;;;;;;;;;;6306202;28;20052;-68
2022/11/01 00:19:31;;;;;;;13.93;10.25;;;;;;;;;;6305815;28;20052;-68
2022/11/01 00:22:33;;;;;;;18.20;9.25;;;;;;;;;;6306106;28;20048;-68
2022/11/01 00:25:34;;;;;;;19.73;10.95;;;;;;;;;;6306780;28;20060;-68
2022/11/01 00:28:36;;;;;;;14.68;9.82;;;;;;;;;;6305090;28;20699;-68
2022/11/01 00:31:38;;;;;;;18.05;8.95;;;;;;;;;;6307764;28;20044;-68
2022/11/01 00:34:40;;;;;;;15.32;9.27;;;;;;;;;;6303886;28;20052;-68
2022/11/01 00:37:42;;;;;;;18.10;9.67;;;;;;;;;;6307596;28;20054;-68
2022/11/01 00:40:44;;;;;;;14.65;8.82;;;;;;;;;;6306793;28;20458;-68
2022/11/01 00:43:46;;;;;;;16.95;9.27;;;;;;;;;;6306018;28;20114;-68
2022/11/01 00:46:48;;;;;;;15.65;9.38;;;;;;;;;;6308313;28;20052;-68
2022/11/01 00:49:50;;;;;;;15.95;9.20;;;;;;;;;;6307221;28;20048;-68
2022/11/01 00:52:52;;;;;;;15.57;8.53;;;;;;;;;;6309834;28;20246;-68
2022/11/01 00:56:00;;;;;;;16.77;8.80;;;;;;;;;;6309962;28;20474;-68
2022/11/01 00:59:01;;;;;;;16.88;8.95;;;;;;;;;;6309253;28;20072;-68
2022/11/01 01:02:03;;;;;;;17.70;9.25;;;;;;;;;;6305260;28;20094;-68
2022/11/01 01:05:07;;;;;;;17.17;9.05;;;;;;;;;;6307512;28;20051;-68
2022/11/01 01:08:09;;;;;;;21.42;8.75;;;;;;;;;;6306219;28;20059;-68
2022/11/01 01:11:10;;;;;;;16.23;9.00;;;;;;;;;;6306924;28;20106;-68
2022/11/01 01:14:12;;;;;;;18.05;8.93;;;;;;;;;;6305317;28;20060;-68
2022/11/01 01:17:13;;;;;;;13.95;8.25;;;;;;;;;;6307520;28;20121;-68
2022/11/01 01:20:16;;;;;;;16.88;9.05;;;;;;;;;;6303508;28;20103;-68
2022/11/01 01:23:18;;;;;;;16.50;9.23;;;;;;;;;;6306306;28;20094;-68
2022/11/01 01:26:20;;;;;;;16.35;9.45;;;;;;;;;;6303166;28;20045;-68
2022/11/01 01:29:22;;;;;;;20.88;9.73;;;;;;;;;;6306118;28;20060;-68
2022/11/01 01:32:24;;;;;;;18.60;9.30;;;;;;;;;;6305715;28;20337;-68
2022/11/01 01:35:27;;;;;;;16.25;8.35;;;;;;;;;;6309460;28;20069;-68
2022/11/01 01:38:28;;;;;;;14.23;9.07;;;;;;;;;;6302692;28;20118;-68
2022/11/01 01:45:19;;;;;;;14.43;8.18;;;;;;;;;;6294915;28;20048;-68
2022/11/01 01:48:23;;;;;;;19.73;8.18;;;;;;;;;;6305953;28;20104;-68
2022/11/01 01:51:27;;;;;;;12.38;7.18;;;;;;;;;;6306315;28;20402;-68
2022/11/01 01:54:30;;;;;;;15.57;8.13;;;;;;;;;;6309867;28;20048;-68
2022/11/01 01:57:31;;;;;;;15.05;7.93;;;;;;;;;;6303460;28;20124;-68
2022/11/01 02:00:33;;;;;;;13.45;7.55;;;;;;;;;;6306629;28;20082;-68
2022/11/01 02:03:36;;;;;;;13.40;6.88;;;;;;;;;;6303547;28;20094;-68
2022/11/01 02:06:39;;;;;;;13.75;7.53;;;;;;;;;;6303332;28;20106;-68
2022/11/01 02:09:42;;;;;;;11.95;7.63;;;;;;;;;;6302860;28;20051;-68
2022/11/01 02:12:48;;;;;;;14.82;7.60;;;;;;;;;;6306374;28;20048;-68
2022/11/01 02:16:00;;;;;;;15.32;8.45;;;;;;;;;;6302931;28;20228;-68
2022/11/01 02:19:16;;;;;;;13.50;7.70;;;;;;;;;;6308231;28;20252;-68
2022/11/01 02:22:24;;;;;;;12.68;7.70;;;;;;;;;;6301314;28;20359;-68
2022/11/01 02:25:44;;;;;;;16.55;7.50;;;;;;;;;;6302642;28;20056;-68
2022/11/01 02:28:54;;;;;;;11.90;7.40;;;;;;;;;;6302680;28;20048;-68
2022/11/01 02:32:06;;;;;;;13.75;7.13;;;;;;;;;;6309612;28;20053;-68
2022/11/01 02:35:13;;;;;;;13.57;6.90;;;;;;;;;;6302846;28;20052;-68
2022/11/01 02:38:21;;;;;;;10.60;6.93;;;;;;;;;;6304036;28;20052;-68
2022/11/01 02:41:25;;;;;;;12.10;7.45;;;;;;;;;;6303128;28;20090;-68
2022/11/01 02:44:29;;;;;;;14.20;7.80;;;;;;;;;;6303948;28;20062;-68
2022/11/01 02:47:32;;;;;;;10.35;6.07;;;;;;;;;;6310161;28;20086;-68
2022/11/01 02:50:38;;;;;;;14.48;6.78;;;;;;;;;;6307517;28;20052;-68
2022/11/01 02:53:40;;;;;;;12.00;6.50;;;;;;;;;;6311473;28;20105;-68
2022/11/01 02:56:41;;;;;;;12.68;6.97;;;;;;;;;;6307576;28;20052;-67
2022/11/01 02:59:44;;;;;;;14.50;7.20;;;;;;;;;;6310757;28;20121;-67
2022/11/01 03:02:50;;;;;;;12.83;7.37;;;;;;;;;;6316465;28;20082;-67
2022/11/01 03:05:58;;;;;;;11.52;6.40;;;;;;;;;;6313423;28;20049;-67
2022/11/01 03:09:01;;;;;;;11.38;5.75;;;;;;;;;;6313969;28;20392;-67
2022/11/01 03:12:06;;;;;;;14.75;7.13;;;;;;;;;;6308050;28;20097;-67
2022/11/01 03:15:19;;;;;;;10.93;6.20;;;;;;;;;;6318055;28;20056;-71
2022/11/01 03:18:27;;;;;;;11.40;6.20;;;;;;;;;;6314776;28;20052;-70
2022/11/01 03:21:32;;;;;;;10.07;6.30;;;;;;;;;;6316107;28;20094;-70
2022/11/01 03:24:36;;;;;;;13.10;5.97;;;;;;;;;;6307935;28;20056;-70
2022/11/01 03:27:41;;;;;;;12.68;6.45;;;;;;;;;;6313410;28;20124;-70
2022/11/01 03:30:45;;;;;;;10.10;5.93;;;;;;;;;;6315422;28;20066;-70
2022/11/01 03:33:52;;;;;;;12.88;6.03;;;;;;;;;;6311342;28;20363;-69
2022/11/01 03:36:57;;;;;;;10.57;6.00;;;;;;;;;;6313124;28;20056;-67
2022/11/01 03:40:02;;;;;;;10.00;6.32;;;;;;;;;;6311697;28;20040;-70
2022/11/01 03:43:06;;;;;;;11.93;6.55;;;;;;;;;;6311387;28;20181;-70
2022/11/01 03:46:09;;;;;;;12.57;6.10;;;;;;;;;;6315269;28;20199;-70
2022/11/01 03:49:16;;;;;;;11.30;6.57;;;;;;;;;;6316753;28;20044;-67
2022/11/01 03:52:18;;;;;;;11.38;5.80;;;;;;;;;;6310040;28;20056;-68
2022/11/01 03:55:21;;;;;;;12.43;5.63;;;;;;;;;;6311197;28;20044;-67
2022/11/01 03:58:22;;;;;;;8.77;5.97;;;;;;;;;;6310274;28;20074;-68
2022/11/01 04:01:24;;;;;;;10.57;5.50;;;;;;;;;;6314778;28;20462;-68
2022/11/01 04:04:27;;;;;;;12.95;6.13;;;;;;;;;;6314150;28;20044;-68
2022/11/01 04:07:28;;;;;;;11.77;5.93;;;;;;;;;;6312432;28;20366;-67
2022/11/01 04:10:30;;;;;;;8.40;5.43;;;;;;;;;;6310540;28;20113;-68
2022/11/01 04:13:32;;;;;;;10.75;5.78;;;;;;;;;;6313800;28;20059;-67
2022/11/01 04:23:13;;;;;;;7.85;5.55;;;;;;;;;;6316939;28;20052;-68
2022/11/01 04:26:17;;;;;;;12.13;5.85;;;;;;;;;;6316393;28;20114;-68
2022/11/01 04:29:18;;;;;;;9.35;5.65;;;;;;;;;;6316100;28;20071;-67
2022/11/01 04:32:20;;;;;;;9.20;5.22;;;;;;;;;;6314939;28;20224;-68
2022/11/01 04:35:23;;;;;;;8.35;5.32;;;;;;;;;;6311010;28;20275;-67
2022/11/01 04:38:24;;;;;;;9.93;5.45;;;;;;;;;;6314252;28;20233;-67
2022/11/01 04:41:28;;;;;;;9.30;5.50;;;;;;;;;;6315586;28;20055;-68
2022/11/01 04:44:29;;;;;;;12.73;6.22;;;;;;;;;;6311072;28;20109;-68
2022/11/01 04:47:31;;;;;;;10.02;5.32;;;;;;;;;;6314186;28;20040;-68
2022/11/01 04:50:35;;;;;;;8.32;5.18;;;;;;;;;;6313652;28;20394;-68
2022/11/01 04:53:36;;;;;;;;;;;;;;;;;;6314806;28;20052;-68
2022/11/01 04:56:38;;;;;;;12.20;5.00;;;;;;;;;;6311256;28;20047;-68
2022/11/01 04:59:39;;;;;;;12.02;5.45;;;;;;;;;;6316721;28;20051;-68
2022/11/01 05:02:41;;;;;;;9.25;5.20;;;;;;;;;;6313654;28;20097;-67
2022/11/01 05:05:44;;;;;;;9.23;4.95;;;;;;;;;;6314688;28;20110;-68
2022/11/01 05:08:45;;;;;;;13.00;5.67;;;;;;;;;;6316157;28;20105;-68
2022/11/01 05:11:47;;;;;;;10.48;5.20;;;;;;;;;;6308123;28;20063;-68
2022/11/01 05:14:49;;;;;;;7.72;5.28;;;;;;;;;;6316569;28;20108;-67
2022/11/01 05:17:50;;;;;;;11.70;5.78;;;;;;;;;;6313100;28;20360;-68
2022/11/01 05:20:53;;;;;;;10.13;5.13;;;;;;;;;;6310923;28;20280;-68
2022/11/01 05:23:55;;;;;;;8.27;5.33;;;;;;;;;;6306215;28;20056;-68
2022/11/01 05:26:56;;;;;;;10.75;5.10;;;;;;;;;;6310697;28;20056;-68
2022/11/01 05:29:58;;;;;;;11.25;5.88;;;;;;;;;;6312330;28;20048;-67
2022/11/01 05:33:00;;;;;;;8.75;5.22;;;;;;;;;;6312020;28;20355;-67
2022/11/01 05:36:03;;;;;;;15.15;5.47;;;;;;;;;;6310402;28;20052;-68
2022/11/01 05:39:05;;;;;;;7.43;5.40;;;;;;;;;;6312236;28;20064;-67
2022/11/01 05:42:07;;;;;;;13.07;5.88;;;;;;;;;;6314521;28;20051;-68
2022/11/01 05:45:10;;;;;;;9.88;4.63;;;;;;;;;;6305610;28;20074;-67
2022/11/01 05:48:11;;;;;;;10.85;5.15;;;;;;;;;;6289172;28;20060;-68
2022/11/01 05:51:14;;;;;;;8.80;5.18;;;;;;;;;;6315043;28;20079;-68
2022/11/01 05:54:16;;;;;;;14.50;5.27;;;;;;;;;;6306021;28;20097;-69
2022/11/01 05:57:17;;;;;;;9.50;5.35;;;;;;;;;;6308501;28;20052;-69
2022/11/01 06:00:19;;;;;;;10.00;5.07;;;;;;;;;;6308225;28;20271;-69
2022/11/01 06:03:21;;;;;;;8.25;5.20;;;;;;;;;;6310476;28;20154;-67
2022/11/01 06:06:24;;;;;;;9.02;5.20;;;;;;;;;;6311212;28;20278;-67
2022/11/01 06:09:26;;;;;;;7.78;4.88;;;;;;;;;;6308525;28;20052;-67
2022/11/01 06:12:27;;;;;;;8.20;4.45;;;;;;;;;;6305714;28;20351;-67
2022/11/01 06:15:29;;;;;;;12.65;5.55;;;;;;;;;;6304238;28;20383;-67
2022/11/01 06:18:31;;;;;;;11.90;4.78;;;;;;;;;;6304045;28;20143;-67
2022/11/01 06:21:34;;;;;;;9.13;5.32;;;;;;;;;;6315715;28;20105;-68
2022/11/01 06:24:35;;;;;;;10.37;5.23;;;;;;;;;;6310566;28;20389;-68
2022/11/01 06:27:37;;;;;;;7.15;4.13;;;;;;;;;;6313885;28;20339;-67
2022/11/01 06:30:39;;;;;;;6.72;4.13;;;;;;;;;;6309469;28;20098;-68
2022/11/01 06:33:40;;;;;;;9.98;4.78;;;;;;;;;;6309401;28;20128;-68
2022/11/01 06:36:43;;;;;;;8.20;5.13;;;;;;;;;;6314441;28;20047;-67
2022/11/01 06:39:45;;;;;;;10.27;4.90;;;;;;;;;;6309710;28;20210;-67
2022/11/01 06:42:46;;;;;;;9.63;5.15;;;;;;;;;;6310143;28;20120;-67
2022/11/01 06:45:48;;;;;;;10.48;4.82;;;;;;;;;;6312926;28;20310;-68
2022/11/01 06:48:49;;;;;;;11.02;4.85;;;;;;;;;;6307765;28;20280;-67
2022/11/01 06:51:52;;;;;;;7.90;4.85;;;;;;;;;;6311077;28;20049;-68
2022/11/01 06:54:54;;;;;;;7.43;4.80;;;;;;;;;;6319238;28;20048;-67
2022/11/01 06:57:57;;;;;;;9.65;5.20;;;;;;;;;;6316355;28;20060;-68
2022/11/01 07:01:01;;;;;;;7.87;4.53;;;;;;;;;;6318886;28;20094;-68
2022/11/01 07:04:03;;;;;;;8.23;4.88;;;;;;;;;;6315208;28;20450;-67
2022/11/01 07:07:06;;;;;;;10.63;5.05;;;;;;;;;;6315120;28;20044;-67
2022/11/01 07:10:09;;;;;;;7.40;4.83;;;;;;;;;;6313023;28;20110;-68
2022/11/01 07:13:12;;;;;;;9.68;4.60;;;;;;;;;;6319289;28;20089;-67
2022/11/01 07:16:14;;;;;;;;;;;;;;;;;;6315861;28;20056;-68
2022/11/01 07:19:15;;;;;;;10.00;5.20;;;;;;;;;;6316661;28;19958;-67
2022/11/01 07:22:18;;;;;;;8.32;4.88;;;;;;;;;;6316755;28;20115;-67
2022/11/01 07:25:20;;;;;;;9.33;4.70;;;;;;;;;;6319753;28;20114;-67
2022/11/01 07:28:22;;;;;;;7.50;4.55;;;;;;;;;;6314629;28;20500;-68
2022/11/01 07:31:24;;;;;;;12.23;5.40;;;;;;;;;;6309902;28;20074;-68
2022/11/01 07:34:25;;;;;;;10.85;5.50;;;;;;;;;;6305165;28;20332;-68
2022/11/01 07:37:30;;;;;;;10.77;5.57;;;;;;;;;;6309685;28;20225;-67
2022/11/01 07:40:31;;;;;;;10.32;4.95;;;;;;;;;;6310079;28;20382;-68
2022/11/01 07:43:34;;;;;;;8.00;4.97;;;;;;;;;;6307002;28;20057;-68
2022/11/01 07:46:36;;;;;;;8.65;4.60;;;;;;;;;;6307607;28;20052;-68
2022/11/01 07:49:37;;;;;;;6.63;4.93;;;;;;;;;;6307379;28;20102;-68
2022/11/01 07:52:40;;;;;;;11.60;5.07;;;;;;;;;;6308741;28;20052;-67
2022/11/01 07:55:43;;;;;;;12.27;5.65;;;;;;;;;;6307171;28;20059;-68
2022/11/01 07:58:44;;;;;;;9.35;5.22;;;;;;;;;;6306400;28;20048;-68
2022/11/01 08:01:46;;;;;;;8.40;5.53;;;;;;;;;;6309442;28;20093;-68
2022/11/01 08:04:47;;;;;;;11.40;6.68;;;;;;;;;;6306795;28;20327;-68
2022/11/01 08:07:50;;;;;;;10.77;5.18;;;;;;;;;;6304613;28;20290;-68
2022/11/01 08:10:52;;;;;;;8.47;4.87;;;;;;;;;;6307666;28;20109;-68
2022/11/01 08:13:54;;;;;;;9.32;5.15;;;;;;;;;;6307775;28;20047;-68
2022/11/01 08:16:59;;;;;;;10.73;5.22;;;;;;;;;;6309411;28;20065;-68
2022/11/01 08:20:01;;;;;;;12.38;5.28;;;;;;;;;;6307754;28;20102;-68
2022/11/01 08:23:04;;;;;;;8.25;5.30;;;;;;;;;;6305154;28;20101;-68
2022/11/01 08:26:06;;;;;;;10.13;4.90;;;;;;;;;;6306604;28;20086;-68
2022/11/01 08:29:08;;;;;;;11.10;5.78;;;;;;;;;;6308395;28;20127;-68
2022/11/01 08:32:10;;;;;;;8.45;5.03;;;;;;;;;;6305481;28;20331;-68
2022/11/01 08:35:12;;;;;;;8.27;5.20;;;;;;;;;;6306568;28;20056;-68
2022/11/01 08:38:15;;;;;;;11.25;5.40;;;;;;;;;;6308135;28;20106;-68
2022/11/01 08:41:16;;;;;;;9.43;5.40;;;;;;;;;;6304416;28;20044;-68
2022/11/01 08:44:19;;;;;;;11.13;5.30;;;;;;;;;;6308156;28;20354;-68
2022/11/01 08:47:21;;;;;;;7.70;5.20;;;;;;;;;;6306366;28;20052;-68
2022/11/01 08:50:22;;;;;;;8.73;5.68;;;;;;;;;;6306653;28;20380;-68
2022/11/01 08:53:25;;;;;;;7.55;4.43;;;;;;;;;;6311887;28;21403;-67
2022/11/01 08:56:27;;;;;;;8.93;5.20;;;;;;;;;;6304601;28;20090;-68
2022/11/01 08:59:29;;;;;;;7.47;4.60;;;;;;;;;;6307220;28;20496;-68
2022/11/01 09:02:30;;;;;;;10.73;4.93;;;;;;;;;;6306208;28;20146;-68
2022/11/01 09:05:32;;;;;;;8.55;5.32;;;;;;;;;;6306968;28;20072;-67
2022/11/01 09:08:35;;;;;;;10.43;5.25;;;;;;;;;;6304278;28;20247;-68
2022/11/01 09:11:37;;;;;;;10.80;4.80;;;;;;;;;;6305460;28;20060;-68
2022/11/01 09:14:38;;;;;;;10.65;5.05;;;;;;;;;;6305171;28;20090;-67
2022/11/01 09:17:40;;;;;;;9.57;4.78;;;;;;;;;;6304761;28;20604;-68
2022/11/01 09:20:42;;;;;;;7.80;5.32;;;;;;;;;;6305023;28;20052;-68
2022/11/01 09:23:45;;;;;;;9.63;5.32;;;;;;;;;;6303479;28;20336;-68
2022/11/01 09:26:47;;;;;;;10.93;5.90;;;;;;;;;;6305641;28;20389;-68
2022/11/01 09:29:49;;;;;;;7.85;5.13;;;;;;;;;;6302143;28;20339;-68
2022/11/01 09:32:50;;;;;;;7.95;5.25;;;;;;;;;;6299629;28;20048;-68
2022/11/01 09:35:53;;;;;;;12.05;5.93;;;;;;;;;;6304362;28;20372;-68
2022/11/01 09:38:58;;;;;;;10.10;5.90;;;;;;;;;;6306477;28;20354;-68
2022/11/01 09:42:02;;;;;;;10.50;5.60;;;;;;;;;;6303213;28;20058;-68
2022/11/01 09:45:06;;;;;;;10.60;6.10;;;;;;;;;;6305380;28;20048;-68
2022/11/01 09:48:07;;;;;;;10.77;5.80;;;;;;;;;;6303658;28;20052;-68
2022/11/01 09:51:13;;;;;;;9.77;5.28;;;;;;;;;;6301283;28;20275;-68
2022/11/01 09:54:16;;;;;;;10.05;6.18;;;;;;;;;;6304371;28;20256;-67
2022/11/01 09:57:20;;;;;;;9.73;5.88;;;;;;;;;;6304059;28;20055;-68
2022/11/01 10:00:22;;;;;;;9.88;5.47;;;;;;;;;;6303816;28;20327;-68
2022/11/01 10:03:42;;;;;;;8.43;5.10;;;;;;;;;;6306593;28;20050;-68
2022/11/01 10:06:47;;;;;;;8.93;5.65;;;;;;;;;;6308727;28;20085;-67
2022/11/01 10:09:54;;;;;;;10.13;5.75;;;;;;;;;;6306939;28;20056;-67
2022/11/01 10:13:04;;;;;;;10.82;5.55;;;;;;;;;;6305978;28;20060;-67
2022/11/01 10:16:11;;;;;;;7.30;4.88;;;;;;;;;;6304808;28;20391;-67
2022/11/01 10:19:14;;;;;;;8.13;5.18;;;;;;;;;;6304383;28;20217;-67
2022/11/01 10:22:18;;;;;;;8.15;5.18;;;;;;;;;;6306438;28;20117;-68
2022/11/01 10:25:25;;;;;;;10.15;4.78;;;;;;;;;;6302748;28;20064;-67
2022/11/01 10:28:32;;;;;;;7.13;4.35;;;;;;;;;;6303551;28;20052;-67
2022/11/01 10:31:39;;;;;;;9.38;5.18;;;;;;;;;;6305346;28;20094;-67
2022/11/01 10:34:40;;;;;;;8.55;4.22;;;;;;;;;;6304385;28;20048;-68
2022/11/01 10:37:46;;;;;;;7.75;4.85;;;;;;;;;;6308498;28;20048;-67
2022/11/01 10:40:52;;;;;;;8.80;5.28;;;;;;;;;;6301287;28;20048;-68
2022/11/01 10:43:56;;;;;;;7.53;4.35;;;;;;;;;;6302548;28;20337;-67
2022/11/01 10:46:59;;;;;;;10.88;4.25;;;;;;;;;;6305579;28;20350;-67
2022/11/01 10:50:03;;;;;;;7.78;4.80;;;;;;;;;;6303806;28;20048;-68
2022/11/01 10:53:07;;;;;;;10.77;5.07;;;;;;;;;;6306566;28;20049;-67
2022/11/01 10:56:15;;;;;;;7.97;5.60;;;;;;;;;;6305718;28;20328;-67
2022/11/01 10:59:19;;;;;;;10.88;6.00;;;;;;;;;;6305317;28;20117;-67
2022/11/01 11:02:24;;;;;;;10.18;5.57;;;;;;;;;;6304087;28;20110;-68
2022/11/01 11:05:27;;;;;;;9.00;5.22;;;;;;;;;;6305500;28;20052;-67
2022/11/01 11:08:29;;;;;;;8.63;5.28;;;;;;;;;;6308814;28;20052;-67
2022/11/01 11:11:35;;;;;;;11.65;5.80;;;;;;;;;;6311215;28;20052;-68
2022/11/01 11:14:37;;;;;;;9.57;5.65;;;;;;;;;;6310779;28;20052;-68
2022/11/01 11:17:42;;;;;;;7.63;5.07;;;;;;;;;;6307824;28;20101;-68
2022/11/01 11:20:44;;;;;;;10.10;5.68;;;;;;;;;;6307981;28;20091;-67
2022/11/01 11:23:46;;;;;;;7.78;5.00;;;;;;;;;;6309115;28;20108;-67
2022/11/01 11:26:51;;;;;;;11.65;6.45;;;;;;;;;;6309678;28;20101;-67
2022/11/01 11:29:54;;;;;;;11.65;5.90;;;;;;;;;;6307612;28;20382;-68
2022/11/01 11:32:57;;;;;;;10.75;6.50;;;;;;;;;;6307907;28;20060;-67
2022/11/01 11:35:59;;;;;;;16.77;6.47;;;;;;;;;;6307971;28;20053;-67
2022/11/01 11:39:02;;;;;;;13.52;6.43;;;;;;;;;;6310670;28;20093;-67
2022/11/01 11:42:15;;;;;;;12.73;6.20;;;;;;;;;;6309246;28;20052;-67
2022/11/01 11:45:23;;;;;;;10.73;6.07;;;;;;;;;;6308626;28;20052;-66
2022/11/01 11:48:24;;;;;;;11.68;6.40;;;;;;;;;;6307467;28;20090;-66
2022/11/01 11:51:27;;;;;;;11.80;5.95;;;;;;;;;;6306539;28;20048;-66
2022/11/01 11:54:33;;;;;;;11.17;5.30;;;;;;;;;;6312415;28;20355;-66
2022/11/01 11:57:38;;;;;;;9.93;5.35;;;;;;;;;;6309486;28;20056;-67
2022/11/01 12:00:43;;;;;;;11.90;5.15;;;;;;;;;;6306003;28;20063;-67
2022/11/01 12:03:47;;;;;;;12.40;4.90;;;;;;;;;;6308809;28;20474;-68
2022/11/01 12:06:49;;;;;;;8.30;4.63;;;;;;;;;;6307216;28;20114;-67
2022/11/01 12:09:50;;;;;;;10.18;5.00;;;;;;;;;;6306709;28;20111;-67
2022/11/01 12:12:55;;;;;;;7.70;4.05;;;;;;;;;;6308607;28;20116;-67
2022/11/01 12:16:25;;;;;;;9.48;4.30;;;;;;;;;;6307619;28;20056;-67
2022/11/01 12:19:28;;;;;;;9.57;4.60;;;;;;;;;;6308501;28;20382;-67
2022/11/01 12:22:33;;;;;;;7.45;4.57;;;;;;;;;;6306588;28;20055;-67
2022/11/01 12:25:35;;;;;;;13.98;5.07;;;;;;;;;;6306059;28;20142;-67
2022/11/01 12:28:41;;;;;;;9.18;5.05;;;;;;;;;;6307567;28;20186;-67
2022/11/01 12:31:44;;;;;;;9.88;5.00;;;;;;;;;;6300503;28;20240;-67
2022/11/01 12:34:47;;;;;;;11.95;6.25;;;;;;;;;;6305759;28;20222;-67
2022/11/01 12:37:59;;;;;;;10.57;5.80;;;;;;;;;;6310192;28;20049;-67
2022/11/01 12:41:09;;;;;;;10.65;5.65;;;;;;;;;;6307134;28;20086;-67
2022/11/01 12:44:23;;;;;;;9.48;5.50;;;;;;;;;;6304156;28;20053;-67
2022/11/01 12:47:30;;;;;;;11.65;6.13;;;;;;;;;;6305252;28;20056;-67
2022/11/01 12:50:37;;;;;;;10.05;6.20;;;;;;;;;;6302930;28;20041;-67
2022/11/01 12:53:41;;;;;;;13.95;5.90;;;;;;;;;;6305748;28;20405;-67
2022/11/01 12:56:43;;;;;;;9.32;6.05;;;;;;;;;;6306393;28;20048;-67
2022/11/01 12:59:48;;;;;;;8.20;5.63;;;;;;;;;;6304942;28;20060;-67
2022/11/01 13:03:08;;;;;;;11.07;5.68;;;;;;;;;;6306308;28;20448;-67
2022/11/01 13:06:17;;;;;;;10.80;6.07;;;;;;;;;;6305786;28;20052;-67
2022/11/01 13:09:24;;;;;;;12.40;6.18;;;;;;;;;;6305290;28;20070;-67
2022/11/01 13:12:32;;;;;;;11.85;6.68;;;;;;;;;;6307087;28;20044;-67
2022/11/01 13:15:49;;;;;;;10.00;6.35;;;;;;;;;;6304888;28;20213;-67
2022/11/01 13:18:56;;;;;;;12.18;6.70;;;;;;;;;;6303937;28;20082;-67
2022/11/01 13:22:00;;;;;;;12.52;7.10;;;;;;;;;;6306151;28;20052;-67
2022/11/01 13:25:06;;;;;;;17.10;8.05;;;;;;;;;;6305725;28;20085;-67
2022/11/01 13:28:18;;;;;;;13.00;8.57;;;;;;;;;;6303972;28;20048;-67
2022/11/01 13:31:31;;;;;;;11.98;7.80;;;;;;;;;;6302921;28;20052;-68
2022/11/01 13:34:45;;;;;;;14.30;8.10;;;;;;;;;;6303656;28;20059;-68
2022/11/01 13:37:47;;;;;;;;;;;;;;;;;;6307636;28;20056;-67
2022/11/01 13:40:56;;;;;;;14.38;7.53;;;;;;;;;;6305477;28;19916;-68
2022/11/01 13:44:04;;;;;;;12.48;7.72;;;;;;;;;;6305684;28;20369;-67
2022/11/01 13:47:34;;;;;;;13.88;7.85;;;;;;;;;;6307121;28;20056;-67
2022/11/01 13:51:05;;;;;;;10.80;7.32;;;;;;;;;;6302778;28;20067;-67
2022/11/01 13:54:13;;;;;;;14.35;7.63;;;;;;;;;;6305465;28;20102;-67
2022/11/01 13:57:17;;;;;;;10.52;7.47;;;;;;;;;;6305577;28;20332;-67
2022/11/01 14:00:43;;;;;;;10.80;8.40;;;;;;;;;;6305385;28;20601;-67
2022/11/01 14:03:46;;;;;;;14.43;9.00;;;;;;;;;;6306195;28;20075;-67
2022/11/01 14:06:50;;;;;;;12.25;8.98;;;;;;;;;;6306604;28;20048;-66
2022/11/01 14:09:53;;;;;;;15.30;9.18;;;;;;;;;;6305947;28;20105;-67
2022/11/01 14:13:10;;;;;;;11.88;8.25;;;;;;;;;;6312744;28;20421;-67
2022/11/01 14:16:21;;;;;;;12.65;8.88;;;;;;;;;;6312169;28;20089;-67
2022/11/01 14:19:26;;;;;;;12.18;7.63;;;;;;;;;;6312949;28;20071;-67
2022/11/01 14:22:29;;;;;;;11.57;7.95;;;;;;;;;;6315849;28;20044;-67
2022/11/01 14:25:31;;;;;;;;;;;;;;;;;;6311991;28;20119;-66
2022/11/01 14:28:33;;;;;;;12.20;7.93;;;;;;;;;;6310550;28;19923;-67
2022/11/01 14:31:35;;;;;;;12.80;8.18;;;;;;;;;;6313430;28;20057;-67
2022/11/01 14:34:40;;;;;;;11.73;7.90;;;;;;;;;;6312419;28;20108;-67
2022/11/01 14:37:43;;;;;;;12.45;7.72;;;;;;;;;;6309999;28;20095;-67
2022/11/01 14:40:48;;;;;;;13.80;7.47;;;;;;;;;;6311630;28;20052;-67
2022/11/01 14:43:52;;;;;;;11.45;7.82;;;;;;;;;;6316948;28;20110;-67
2022/11/01 14:46:56;;;;;;;11.48;7.10;;;;;;;;;;6322075;28;20041;-67
2022/11/01 14:50:04;;;;;;;11.57;7.93;;;;;;;;;;6314522;28;20370;-67
2022/11/01 14:53:09;;;;;;;10.90;7.65;;;;;;;;;;6318037;28;20040;-67
2022/11/01 14:56:16;;;;;;;12.25;7.82;;;;;;;;;;6315052;28;20060;-67
2022/11/01 14:59:21;;;;;;;11.18;7.28;;;;;;;;;;6317034;28;20119;-67
2022/11/01 15:02:24;;;;;;;14.05;7.18;;;;;;;;;;6316134;28;20056;-67
2022/11/01 15:05:27;;;;;;;11.85;7.53;;;;;;;;;;6317822;28;20115;-67
2022/11/01 15:08:31;;;;;;;10.52;7.18;;;;;;;;;;6314033;28;20355;-68
2022/11/01 15:11:34;;;;;;;11.15;7.43;;;;;;;;;;6311004;28;20124;-67
2022/11/01 15:14:37;;;;;;;10.98;7.55;;;;;;;;;;6307383;28;20061;-67
2022/11/01 15:17:40;;;;;;;17.20;7.72;;;;;;;;;;6306270;28;20048;-68
2022/11/01 15:20:47;;;;;;;12.20;7.40;;;;;;;;;;6309906;28;20259;-67
2022/11/01 15:23:50;;;;;;;11.45;6.75;;;;;;;;;;6308965;28;20060;-67
2022/11/01 15:26:52;;;;;;;12.48;7.53;;;;;;;;;;6307735;28;20044;-67
2022/11/01 15:29:55;;;;;;;12.23;7.68;;;;;;;;;;6306704;28;20040;-67
2022/11/01 15:33:14;;;;;;;11.73;8.02;;;;;;;;;;6308282;28;20323;-67
2022/11/01 15:36:22;;;;;;;14.57;8.65;;;;;;;;;;6308503;28;20101;-67
2022/11/01 15:39:25;;;;;;;9.30;7.05;;;;;;;;;;6309987;28;20044;-68
2022/11/01 15:42:31;;;;;;;11.63;6.97;;;;;;;;;;6306369;28;20070;-68
2022/11/01 15:45:34;;;;;;;13.70;8.20;;;;;;;;;;6306175;28;20728;-68
2022/11/01 15:48:36;;;;;;;;;;;;;;;;;;6307302;28;20047;-68
2022/11/01 15:51:42;;;;;;;11.48;7.18;;;;;;;;;;6306062;28;19917;-68
2022/11/01 15:54:46;;;;;;;13.05;7.60;;;;;;;;;;6309824;28;20268;-67
2022/11/01 15:57:52;;;;;;;10.52;7.40;;;;;;;;;;6306488;28;20052;-67
2022/11/01 16:00:56;;;;;;;9.98;7.03;;;;;;;;;;6308695;28;20050;-69
2022/11/01 16:04:01;;;;;;;11.95;7.03;;;;;;;;;;6305677;28;20260;-68
2022/11/01 16:07:07;;;;;;;11.00;7.47;;;;;;;;;;6307948;28;20056;-67
2022/11/01 16:10:16;;;;;;;10.88;6.53;;;;;;;;;;6307326;28;20101;-67
2022/11/01 16:13:19;;;;;;;9.77;6.63;;;;;;;;;;6308750;28;20117;-68
2022/11/01 16:16:20;;;;;;;10.45;6.68;;;;;;;;;;6306729;28;20101;-68
2022/11/01 16:19:47;;;;;;;8.73;5.85;;;;;;;;;;6305969;28;20324;-68
2022/11/01 16:22:50;;;;;;;10.88;6.68;;;;;;;;;;6302696;28;20068;-68
2022/11/01 16:26:00;;;;;;;17.10;7.35;;;;;;;;;;6307287;28;20337;-68
2022/11/01 16:29:02;;;;;;;12.50;7.82;;;;;;;;;;6310347;28;20290;-68
2022/11/01 16:32:04;;;;;;;12.27;7.60;;;;;;;;;;6306667;28;20048;-69
2022/11/01 16:35:30;;;;;;;10.93;7.13;;;;;;;;;;6306223;28;20055;-65
2022/11/01 16:38:44;;;;;;;14.60;8.27;;;;;;;;;;6309002;28;20121;-71
2022/11/01 16:41:45;;;;;;;9.77;7.47;;;;;;;;;;6308277;28;20059;-68
2022/11/01 16:44:49;;;;;;;11.10;7.22;;;;;;;;;;6307247;28;20048;-70
2022/11/01 16:47:51;;;;;;;12.73;7.88;;;;;;;;;;6312670;28;20065;-69
2022/11/01 16:50:53;;;;;;;11.50;7.07;;;;;;;;;;6312511;28;20133;-69
2022/11/01 16:53:57;;;;;;;11.95;7.22;;;;;;;;;;6312228;28;20049;-70
2022/11/01 16:56:59;;;;;;;13.05;7.82;;;;;;;;;;6311028;28;20048;-67
2022/11/01 17:00:01;;;;;;;12.50;8.10;;;;;;;;;;6307455;28;20061;-69
2022/11/01 17:03:04;;;;;;;19.27;8.43;;;;;;;;;;6304972;28;20056;-70
2022/11/01 17:06:06;;;;;;;12.48;8.18;;;;;;;;;;6306644;28;20266;-70
2022/11/01 17:09:12;;;;;;;13.82;8.98;;;;;;;;;;6306908;28;20313;-70
2022/11/01 17:12:14;;;;;;;14.13;9.23;;;;;;;;;;6308611;28;20044;-69
2022/11/01 17:15:16;;;;;;;15.13;10.15;;;;;;;;;;6311227;28;20150;-69
2022/11/01 17:18:19;;;;;;;19.35;10.32;;;;;;;;;;6313330;28;20430;-69
2022/11/01 17:21:21;;;;;;;;;;;;;;;;;;6314808;28;20124;-69
2022/11/01 17:24:26;;;;;;;16.98;11.25;;;;;;;;;;6311989;28;19916;-69
2022/11/01 17:27:28;;;;;;;17.20;11.48;;;;;;;;;;6308672;28;20064;-70
2022/11/01 17:30:30;;;;;;;16.25;11.43;;;;;;;;;;6302309;28;20358;-70
2022/11/01 17:33:32;;;;;;;14.02;11.43;;;;;;;;;;6305838;28;20340;-70
2022/11/01 17:36:35;;;;;;;17.58;11.75;;;;;;;;;;6306987;28;20044;-69
2022/11/01 17:39:38;;;;;;;15.02;11.70;;;;;;;;;;6303507;28;20334;-68
2022/11/01 17:42:39;;;;;;;15.55;10.75;;;;;;;;;;6300966;28;20078;-68
2022/11/01 17:45:41;;;;;;;14.77;10.40;;;;;;;;;;6304513;28;20140;-69
2022/11/01 17:48:43;;;;;;;15.55;10.85;;;;;;;;;;6303132;28;20378;-69
2022/11/01 17:51:44;;;;;;;15.98;10.23;;;;;;;;;;6306067;28;20044;-69
2022/11/01 17:54:47;;;;;;;14.45;10.48;;;;;;;;;;6308799;28;20098;-69
2022/11/01 17:57:49;;;;;;;16.27;10.50;;;;;;;;;;6302687;28;20275;-69
2022/11/01 18:00:51;;;;;;;17.98;11.25;;;;;;;;;;6309555;28;20507;-68
2022/11/01 18:03:52;;;;;;;17.33;11.90;;;;;;;;;;6310102;28;20220;-70
2022/11/01 18:06:54;;;;;;;14.80;10.30;;;;;;;;;;6309461;28;20063;-69
2022/11/01 18:09:58;;;;;;;18.42;11.70;;;;;;;;;;6303823;28;20048;-69
2022/11/01 18:13:08;;;;;;;15.27;11.98;;;;;;;;;;6309126;28;20060;-70
2022/11/01 18:16:21;;;;;;;16.95;11.65;;;;;;;;;;6306751;28;20070;-70
2022/11/01 18:19:35;;;;;;;15.30;11.38;;;;;;;;;;6305050;28;20064;-68
2022/11/01 18:22:38;;;;;;;;;;;;;;;;;;6302004;28;20055;-67
2022/11/01 18:25:42;;;;;;;13.60;10.65;;;;;;;;;;6308760;28;19924;-67